sensor_id;sensor_type;location;lat;lon;timestamp;pressure;altitude;pressure_sealevel;temperature;humidity
28588;BME280;15787;49.662;10.162;2023-06-14T00:00:09;98700.66;;;14.00;74.73
28588;BME280;15787;49.662;10.162;2023-06-14T00:02:44;98703.00;;;13.71;75.16
28588;BME280;15787;49.662;10.162;2023-06-14T00:05:17;98700.88;;;13.53;76.37
28588;BME280;15787;49.662;10.162;2023-06-14T00:07:51;98697.13;;;13.78;76.25
28588;BME280;15787;49.662;10.162;2023-06-14T00:10:25;98699.28;;;13.74;76.66
28588;BME280;15787;49.662;10.162;2023-06-14T00:13:04;98694.34;;;13.47;77.90
28588;BME280;15787;49.662;10.162;2023-06-14T00:15:39;98698.41;;;13.55;77.74
28588;BME280;15787;49.662;10.162;2023-06-14T00:18:13;98699.06;;;13.59;77.32
28588;BME280;15787;49.662;10.162;2023-06-14T00:20:46;98693.72;;;13.52;76.71
28588;BME280;15787;49.662;10.162;2023-06-14T00:23:19;98696.66;;;13.49;76.77
28588;BME280;15787;49.662;10.162;2023-06-14T00:25:53;98697.06;;;13.38;77.13
28588;BME280;15787;49.662;10.162;2023-06-14T00:28:27;98691.78;;;13.40;77.75
28588;BME280;15787;49.662;10.162;2023-06-14T00:31:00;98694.66;;;13.27;78.33
28588;BME280;15787;49.662;10.162;2023-06-14T00:33:34;98703.22;;;13.24;78.83
28588;BME280;15787;49.662;10.162;2023-06-14T00:36:07;98700.75;;;13.26;79.21
28588;BME280;15787;49.662;10.162;2023-06-14T00:38:40;98691.25;;;12.89;80.62
28588;BME280;15787;49.662;10.162;2023-06-14T00:41:13;98682.66;;;13.05;80.35
28588;BME280;15787;49.662;10.162;2023-06-14T00:43:48;98685.03;;;13.07;80.40
28588;BME280;15787;49.662;10.162;2023-06-14T00:46:21;98677.13;;;12.93;80.73
28588;BME280;15787;49.662;10.162;2023-06-14T00:48:56;98684.41;;;12.90;80.43
28588;BME280;15787;49.662;10.162;2023-06-14T00:51:29;98680.44;;;13.00;80.47
28588;BME280;15787;49.662;10.162;2023-06-14T00:54:04;98689.38;;;12.86;80.90
28588;BME280;15787;49.662;10.162;2023-06-14T00:56:37;98684.16;;;12.97;80.91
28588;BME280;15787;49.662;10.162;2023-06-14T00:59:12;98686.09;;;12.88;80.95
28588;BME280;15787;49.662;10.162;2023-06-14T01:01:47;98685.19;;;12.91;81.34
28588;BME280;15787;49.662;10.162;2023-06-14T01:04:21;98678.88;;;12.78;81.58
28588;BME280;15787;49.662;10.162;2023-06-14T01:06:59;98680.88;;;12.77;81.74
28588;BME280;15787;49.662;10.162;2023-06-14T01:09:43;98681.81;;;12.61;82.01
28588;BME280;15787;49.662;10.162;2023-06-14T01:12:28;98685.50;;;12.37;83.58
28588;BME280;15787;49.662;10.162;2023-06-14T01:15:07;98676.94;;;12.53;82.72
28588;BME280;15787;49.662;10.162;2023-06-14T01:17:41;98675.31;;;12.64;81.89
28588;BME280;15787;49.662;10.162;2023-06-14T01:20:19;98678.25;;;12.61;81.41
28588;BME280;15787;49.662;10.162;2023-06-14T01:22:54;98681.63;;;12.56;81.81
28588;BME280;15787;49.662;10.162;2023-06-14T01:25:28;98681.34;;;12.41;82.27
28588;BME280;15787;49.662;10.162;2023-06-14T01:28:03;98681.63;;;12.22;83.47
28588;BME280;15787;49.662;10.162;2023-06-14T01:30:44;98682.72;;;12.24;83.51
28588;BME280;15787;49.662;10.162;2023-06-14T01:33:20;98682.84;;;12.21;83.56
28588;BME280;15787;49.662;10.162;2023-06-14T01:35:55;98681.16;;;12.23;83.33
28588;BME280;15787;49.662;10.162;2023-06-14T01:38:30;98678.72;;;12.25;83.21
28588;BME280;15787;49.662;10.162;2023-06-14T01:41:04;98678.72;;;12.25;83.22
28588;BME280;15787;49.662;10.162;2023-06-14T01:43:38;98681.63;;;12.22;83.71
28588;BME280;15787;49.662;10.162;2023-06-14T01:46:13;98686.44;;;12.09;83.68
28588;BME280;15787;49.662;10.162;2023-06-14T01:48:48;98675.59;;;11.98;83.85
28588;BME280;15787;49.662;10.162;2023-06-14T01:51:22;98679.75;;;11.81;85.04
28588;BME280;15787;49.662;10.162;2023-06-14T01:53:56;98681.31;;;11.94;84.53
28588;BME280;15787;49.662;10.162;2023-06-14T01:56:30;98671.59;;;11.86;84.95
28588;BME280;15787;49.662;10.162;2023-06-14T01:59:06;98681.22;;;11.73;85.16
28588;BME280;15787;49.662;10.162;2023-06-14T02:01:40;98687.03;;;11.78;85.70
28588;BME280;15787;49.662;10.162;2023-06-14T02:04:13;98677.28;;;11.83;86.10
28588;BME280;15787;49.662;10.162;2023-06-14T02:06:46;98685.69;;;11.83;85.33
28588;BME280;15787;49.662;10.162;2023-06-14T02:09:21;98671.00;;;11.41;86.21
28588;BME280;15787;49.662;10.162;2023-06-14T02:11:58;98679.84;;;11.65;86.07
28588;BME280;15787;49.662;10.162;2023-06-14T02:14:31;98675.72;;;11.57;86.62
28588;BME280;15787;49.662;10.162;2023-06-14T02:17:05;98687.91;;;11.63;86.52
28588;BME280;15787;49.662;10.162;2023-06-14T02:19:38;98697.63;;;11.58;86.62
28588;BME280;15787;49.662;10.162;2023-06-14T02:22:12;98690.88;;;11.30;87.70
28588;BME280;15787;49.662;10.162;2023-06-14T02:24:48;98679.94;;;11.36;87.81
28588;BME280;15787;49.662;10.162;2023-06-14T02:27:32;98687.31;;;11.42;87.67
28588;BME280;15787;49.662;10.162;2023-06-14T02:30:06;98678.16;;;11.55;87.21
28588;BME280;15787;49.662;10.162;2023-06-14T02:32:39;98683.41;;;11.65;86.66
28588;BME280;15787;49.662;10.162;2023-06-14T02:35:17;98685.78;;;11.67;86.09
28588;BME280;15787;49.662;10.162;2023-06-14T02:37:50;98688.22;;;11.52;86.52
28588;BME280;15787;49.662;10.162;2023-06-14T02:40:28;98701.88;;;11.50;86.71
28588;BME280;15787;49.662;10.162;2023-06-14T02:43:02;98699.94;;;11.34;87.52
28588;BME280;15787;49.662;10.162;2023-06-14T02:45:36;98696.72;;;11.36;86.97
28588;BME280;15787;49.662;10.162;2023-06-14T02:48:09;98691.09;;;11.23;87.57
28588;BME280;15787;49.662;10.162;2023-06-14T02:50:45;98697.03;;;11.25;87.60
28588;BME280;15787;49.662;10.162;2023-06-14T02:53:18;98716.94;;;10.99;88.60
28588;BME280;15787;49.662;10.162;2023-06-14T02:55:53;98712.25;;;10.96;89.53
28588;BME280;15787;49.662;10.162;2023-06-14T02:58:27;98712.88;;;10.87;90.20
28588;BME280;15787;49.662;10.162;2023-06-14T03:01:01;98718.22;;;11.10;89.41
28588;BME280;15787;49.662;10.162;2023-06-14T03:03:36;98705.94;;;11.20;88.12
28588;BME280;15787;49.662;10.162;2023-06-14T03:06:09;98723.28;;;11.15;88.27
28588;BME280;15787;49.662;10.162;2023-06-14T03:08:46;98719.31;;;11.00;88.86
28588;BME280;15787;49.662;10.162;2023-06-14T03:11:22;98725.03;;;10.80;89.21
28588;BME280;15787;49.662;10.162;2023-06-14T03:13:56;98727.94;;;10.77;89.83
28588;BME280;15787;49.662;10.162;2023-06-14T03:16:30;98727.44;;;10.95;89.68
28588;BME280;15787;49.662;10.162;2023-06-14T03:19:04;98729.97;;;10.89;89.48
28588;BME280;15787;49.662;10.162;2023-06-14T03:21:39;98730.56;;;10.68;89.84
28588;BME280;15787;49.662;10.162;2023-06-14T03:24:16;98725.44;;;10.95;89.67
28588;BME280;15787;49.662;10.162;2023-06-14T03:26:51;98733.47;;;10.93;89.21
28588;BME280;15787;49.662;10.162;2023-06-14T03:29:24;98742.34;;;11.04;89.62
28588;BME280;15787;49.662;10.162;2023-06-14T03:31:59;98727.50;;;11.07;89.58
28588;BME280;15787;49.662;10.162;2023-06-14T03:34:40;98733.56;;;11.18;88.88
28588;BME280;15787;49.662;10.162;2023-06-14T03:37:18;98735.41;;;11.09;89.30
28588;BME280;15787;49.662;10.162;2023-06-14T03:39:52;98734.94;;;10.98;89.73
28588;BME280;15787;49.662;10.162;2023-06-14T03:42:29;98742.91;;;10.83;90.44
28588;BME280;15787;49.662;10.162;2023-06-14T03:45:03;98739.13;;;10.61;91.09
28588;BME280;15787;49.662;10.162;2023-06-14T03:47:36;98743.56;;;11.03;90.54
28588;BME280;15787;49.662;10.162;2023-06-14T03:50:10;98754.88;;;11.12;89.22
28588;BME280;15787;49.662;10.162;2023-06-14T03:52:44;98754.34;;;11.17;89.51
28588;BME280;15787;49.662;10.162;2023-06-14T03:55:18;98755.50;;;11.04;89.57
28588;BME280;15787;49.662;10.162;2023-06-14T03:57:58;98761.50;;;11.18;89.82
28588;BME280;15787;49.662;10.162;2023-06-14T04:00:32;98766.00;;;11.28;89.09
28588;BME280;15787;49.662;10.162;2023-06-14T04:03:05;98772.47;;;11.25;88.78
28588;BME280;15787;49.662;10.162;2023-06-14T04:05:39;98767.59;;;11.01;89.78
28588;BME280;15787;49.662;10.162;2023-06-14T04:08:14;98774.31;;;11.03;90.44
28588;BME280;15787;49.662;10.162;2023-06-14T04:10:47;98780.56;;;11.36;89.46
28588;BME280;15787;49.662;10.162;2023-06-14T04:13:21;98784.91;;;11.37;88.84
28588;BME280;15787;49.662;10.162;2023-06-14T04:15:55;98785.38;;;11.35;89.27
28588;BME280;15787;49.662;10.162;2023-06-14T04:18:33;98786.34;;;11.29;88.90
28588;BME280;15787;49.662;10.162;2023-06-14T04:21:06;98778.19;;;11.34;89.08
28588;BME280;15787;49.662;10.162;2023-06-14T04:23:40;98774.16;;;11.64;89.21
28588;BME280;15787;49.662;10.162;2023-06-14T04:26:17;98778.16;;;11.63;89.73
28588;BME280;15787;49.662;10.162;2023-06-14T04:28:53;98781.81;;;11.76;90.03
28588;BME280;15787;49.662;10.162;2023-06-14T04:31:29;98782.78;;;11.70;90.14
28588;BME280;15787;49.662;10.162;2023-06-14T04:34:06;98785.69;;;11.66;89.66
28588;BME280;15787;49.662;10.162;2023-06-14T04:36:42;98789.50;;;11.72;89.72
28588;BME280;15787;49.662;10.162;2023-06-14T04:39:21;98806.03;;;11.67;90.35
28588;BME280;15787;49.662;10.162;2023-06-14T04:41:55;98792.78;;;11.83;90.23
28588;BME280;15787;49.662;10.162;2023-06-14T04:44:34;98802.28;;;11.86;90.66
28588;BME280;15787;49.662;10.162;2023-06-14T04:47:09;98803.09;;;11.99;90.05
28588;BME280;15787;49.662;10.162;2023-06-14T04:49:43;98797.81;;;12.01;89.36
28588;BME280;15787;49.662;10.162;2023-06-14T04:52:17;98805.09;;;12.11;89.12
28588;BME280;15787;49.662;10.162;2023-06-14T04:54:52;98805.44;;;12.38;88.46
28588;BME280;15787;49.662;10.162;2023-06-14T04:57:28;98803.66;;;12.32;87.14
28588;BME280;15787;49.662;10.162;2023-06-14T05:00:06;98802.72;;;12.60;87.73
28588;BME280;15787;49.662;10.162;2023-06-14T05:02:43;98815.63;;;12.57;88.87
28588;BME280;15787;49.662;10.162;2023-06-14T05:05:18;98810.44;;;12.56;88.41
28588;BME280;15787;49.662;10.162;2023-06-14T05:07:53;98814.38;;;12.71;88.79
28588;BME280;15787;49.662;10.162;2023-06-14T05:10:27;98816.91;;;12.91;88.18
28588;BME280;15787;49.662;10.162;2023-06-14T05:13:00;98815.06;;;13.09;87.65
28588;BME280;15787;49.662;10.162;2023-06-14T05:15:35;98816.00;;;13.28;86.55
28588;BME280;15787;49.662;10.162;2023-06-14T05:18:09;98815.84;;;13.44;86.50
28588;BME280;15787;49.662;10.162;2023-06-14T05:24:30;98819.88;;;13.65;86.02
28588;BME280;15787;49.662;10.162;2023-06-14T05:27:04;98820.66;;;13.65;84.87
28588;BME280;15787;49.662;10.162;2023-06-14T05:29:37;98817.56;;;13.94;83.31
28588;BME280;15787;49.662;10.162;2023-06-14T05:32:12;98821.44;;;14.18;81.39
28588;BME280;15787;49.662;10.162;2023-06-14T05:34:45;98817.97;;;14.36;80.27
28588;BME280;15787;49.662;10.162;2023-06-14T05:37:18;98821.47;;;14.49;80.22
28588;BME280;15787;49.662;10.162;2023-06-14T05:39:51;98831.19;;;14.66;78.72
28588;BME280;15787;49.662;10.162;2023-06-14T05:42:25;98832.13;;;14.72;76.97
28588;BME280;15787;49.662;10.162;2023-06-14T05:44:59;98841.38;;;14.91;77.16
28588;BME280;15787;49.662;10.162;2023-06-14T05:47:33;98837.22;;;15.04;77.12
28588;BME280;15787;49.662;10.162;2023-06-14T05:50:07;98842.69;;;15.17;76.29
28588;BME280;15787;49.662;10.162;2023-06-14T05:52:41;98843.94;;;15.34;75.71
28588;BME280;15787;49.662;10.162;2023-06-14T05:55:20;98840.22;;;15.46;75.11
28588;BME280;15787;49.662;10.162;2023-06-14T05:57:55;98844.75;;;15.62;75.15
28588;BME280;15787;49.662;10.162;2023-06-14T06:00:28;98847.41;;;15.74;74.35
28588;BME280;15787;49.662;10.162;2023-06-14T06:03:03;98853.66;;;15.88;73.01
28588;BME280;15787;49.662;10.162;2023-06-14T06:05:40;98851.88;;;15.99;72.93
28588;BME280;15787;49.662;10.162;2023-06-14T06:08:13;98842.19;;;16.09;72.11
28588;BME280;15787;49.662;10.162;2023-06-14T06:10:51;98847.63;;;16.22;72.38
28588;BME280;15787;49.662;10.162;2023-06-14T06:13:25;98849.91;;;16.41;72.16
28588;BME280;15787;49.662;10.162;2023-06-14T06:15:58;98859.53;;;16.68;71.92
28588;BME280;15787;49.662;10.162;2023-06-14T06:18:33;98859.34;;;16.71;70.52
28588;BME280;15787;49.662;10.162;2023-06-14T06:21:06;98856.97;;;16.79;71.01
28588;BME280;15787;49.662;10.162;2023-06-14T06:23:40;98857.69;;;16.88;70.16
28588;BME280;15787;49.662;10.162;2023-06-14T06:26:13;98855.50;;;17.16;70.78
28588;BME280;15787;49.662;10.162;2023-06-14T06:28:47;98858.50;;;17.36;69.33
28588;BME280;15787;49.662;10.162;2023-06-14T06:31:20;98863.16;;;17.63;68.78
28588;BME280;15787;49.662;10.162;2023-06-14T06:33:55;98863.31;;;17.83;68.64
28588;BME280;15787;49.662;10.162;2023-06-14T06:36:29;98867.81;;;18.19;67.19
28588;BME280;15787;49.662;10.162;2023-06-14T06:39:02;98859.44;;;18.10;66.95
28588;BME280;15787;49.662;10.162;2023-06-14T06:41:41;98870.94;;;18.21;66.08
28588;BME280;15787;49.662;10.162;2023-06-14T06:44:14;98862.03;;;18.72;65.61
28588;BME280;15787;49.662;10.162;2023-06-14T06:46:52;98868.78;;;18.60;64.50
28588;BME280;15787;49.662;10.162;2023-06-14T06:49:28;98875.25;;;18.60;64.55
28588;BME280;15787;49.662;10.162;2023-06-14T06:52:04;98874.19;;;18.92;64.08
28588;BME280;15787;49.662;10.162;2023-06-14T06:54:40;98868.09;;;19.14;63.92
28588;BME280;15787;49.662;10.162;2023-06-14T06:57:13;98876.25;;;19.47;61.56
28588;BME280;15787;49.662;10.162;2023-06-14T06:59:46;98872.91;;;19.69;61.45
28588;BME280;15787;49.662;10.162;2023-06-14T07:02:19;98879.88;;;19.93;60.23
28588;BME280;15787;49.662;10.162;2023-06-14T07:04:54;98881.06;;;20.07;59.80
28588;BME280;15787;49.662;10.162;2023-06-14T07:07:27;98879.41;;;19.95;59.46
28588;BME280;15787;49.662;10.162;2023-06-14T07:10:00;98870.88;;;20.41;59.73
28588;BME280;15787;49.662;10.162;2023-06-14T07:12:36;98885.31;;;20.74;57.92
28588;BME280;15787;49.662;10.162;2023-06-14T07:15:11;98887.91;;;20.77;58.82
28588;BME280;15787;49.662;10.162;2023-06-14T07:17:51;98882.22;;;20.41;57.20
28588;BME280;15787;49.662;10.162;2023-06-14T07:20:26;98884.97;;;20.61;57.61
28588;BME280;15787;49.662;10.162;2023-06-14T07:22:59;98894.19;;;20.87;59.37
28588;BME280;15787;49.662;10.162;2023-06-14T07:25:33;98886.97;;;20.86;57.13
28588;BME280;15787;49.662;10.162;2023-06-14T07:28:06;98888.84;;;21.37;57.63
28588;BME280;15787;49.662;10.162;2023-06-14T07:30:39;98893.31;;;21.55;57.01
28588;BME280;15787;49.662;10.162;2023-06-14T07:33:12;98899.72;;;21.44;55.31
28588;BME280;15787;49.662;10.162;2023-06-14T07:35:46;98900.28;;;21.54;54.55
28588;BME280;15787;49.662;10.162;2023-06-14T07:38:20;98896.59;;;21.36;53.89
28588;BME280;15787;49.662;10.162;2023-06-14T07:40:53;98904.09;;;21.93;53.96
28588;BME280;15787;49.662;10.162;2023-06-14T07:43:26;98905.22;;;21.53;53.21
28588;BME280;15787;49.662;10.162;2023-06-14T07:45:59;98911.50;;;21.26;52.89
28588;BME280;15787;49.662;10.162;2023-06-14T07:48:37;98900.81;;;22.17;53.73
28588;BME280;15787;49.662;10.162;2023-06-14T07:51:15;98905.19;;;22.18;52.58
28588;BME280;15787;49.662;10.162;2023-06-14T07:53:48;98909.88;;;21.62;52.37
28588;BME280;15787;49.662;10.162;2023-06-14T07:56:21;98912.03;;;21.24;52.26
28588;BME280;15787;49.662;10.162;2023-06-14T07:58:54;98903.66;;;22.22;52.05
28588;BME280;15787;49.662;10.162;2023-06-14T08:01:27;98909.53;;;21.91;51.62
28588;BME280;15787;49.662;10.162;2023-06-14T08:04:00;98904.16;;;22.04;51.66
28588;BME280;15787;49.662;10.162;2023-06-14T08:06:35;98904.91;;;22.10;51.90
28588;BME280;15787;49.662;10.162;2023-06-14T08:09:08;98909.34;;;21.58;51.54
28588;BME280;15787;49.662;10.162;2023-06-14T08:11:41;98917.97;;;22.67;51.84
28588;BME280;15787;49.662;10.162;2023-06-14T08:14:14;98915.88;;;22.61;51.26
28588;BME280;15787;49.662;10.162;2023-06-14T08:16:47;98916.63;;;22.56;50.73
28588;BME280;15787;49.662;10.162;2023-06-14T08:19:20;98919.50;;;23.12;50.52
28588;BME280;15787;49.662;10.162;2023-06-14T08:21:54;98916.69;;;22.62;50.12
28588;BME280;15787;49.662;10.162;2023-06-14T08:24:27;98923.63;;;22.55;50.68
28588;BME280;15787;49.662;10.162;2023-06-14T08:27:01;98921.03;;;23.46;50.55
28588;BME280;15787;49.662;10.162;2023-06-14T08:29:37;98931.06;;;23.69;48.94
28588;BME280;15787;49.662;10.162;2023-06-14T08:32:12;98920.03;;;23.96;49.84
28588;BME280;15787;49.662;10.162;2023-06-14T08:34:45;98926.94;;;23.59;49.16
28588;BME280;15787;49.662;10.162;2023-06-14T08:37:39;98925.25;;;23.92;49.22
28588;BME280;15787;49.662;10.162;2023-06-14T08:40:18;98919.50;;;24.03;49.38
28588;BME280;15787;49.662;10.162;2023-06-14T08:42:54;98923.47;;;24.40;48.72
28588;BME280;15787;49.662;10.162;2023-06-14T08:45:27;98922.56;;;23.53;48.89
28588;BME280;15787;49.662;10.162;2023-06-14T08:48:03;98924.44;;;22.89;49.35
28588;BME280;15787;49.662;10.162;2023-06-14T08:50:39;98924.84;;;23.60;49.29
28588;BME280;15787;49.662;10.162;2023-06-14T08:53:16;98917.25;;;24.72;48.88
28588;BME280;15787;49.662;10.162;2023-06-14T08:55:52;98925.09;;;25.01;46.87
28588;BME280;15787;49.662;10.162;2023-06-14T08:58:25;98915.16;;;24.78;47.67
28588;BME280;15787;49.662;10.162;2023-06-14T09:01:01;98928.00;;;24.95;46.64
28588;BME280;15787;49.662;10.162;2023-06-14T09:03:35;98926.22;;;24.92;46.65
28588;BME280;15787;49.662;10.162;2023-06-14T09:06:12;98926.59;;;25.07;46.55
28588;BME280;15787;49.662;10.162;2023-06-14T09:08:52;98933.47;;;24.93;47.10
28588;BME280;15787;49.662;10.162;2023-06-14T09:11:25;98928.28;;;25.22;46.94
28588;BME280;15787;49.662;10.162;2023-06-14T09:14:00;98923.41;;;25.89;45.50
28588;BME280;15787;49.662;10.162;2023-06-14T09:16:33;98930.59;;;25.23;46.24
28588;BME280;15787;49.662;10.162;2023-06-14T09:19:07;98931.06;;;25.57;46.30
28588;BME280;15787;49.662;10.162;2023-06-14T09:21:40;98924.53;;;24.37;46.71
28588;BME280;15787;49.662;10.162;2023-06-14T09:24:14;98922.78;;;24.23;47.64
28588;BME280;15787;49.662;10.162;2023-06-14T09:26:47;98915.75;;;24.65;46.50
28588;BME280;15787;49.662;10.162;2023-06-14T09:29:20;98927.72;;;25.53;47.03
28588;BME280;15787;49.662;10.162;2023-06-14T09:31:53;98919.91;;;26.20;45.61
28588;BME280;15787;49.662;10.162;2023-06-14T09:34:27;98926.03;;;25.39;44.05
28588;BME280;15787;49.662;10.162;2023-06-14T09:36:59;98931.06;;;25.57;43.97
28588;BME280;15787;49.662;10.162;2023-06-14T09:39:34;98929.75;;;25.58;43.54
28588;BME280;15787;49.662;10.162;2023-06-14T09:42:16;98929.84;;;24.93;43.13
28588;BME280;15787;49.662;10.162;2023-06-14T09:44:51;98926.72;;;25.21;43.39
28588;BME280;15787;49.662;10.162;2023-06-14T09:47:24;98929.81;;;24.63;44.00
28588;BME280;15787;49.662;10.162;2023-06-14T09:49:57;98925.78;;;24.83;43.72
28588;BME280;15787;49.662;10.162;2023-06-14T09:52:31;98928.84;;;25.44;42.76
28588;BME280;15787;49.662;10.162;2023-06-14T09:55:12;98923.41;;;26.64;42.56
28588;BME280;15787;49.662;10.162;2023-06-14T09:57:47;98922.19;;;26.59;40.25
28588;BME280;15787;49.662;10.162;2023-06-14T10:00:21;98914.59;;;26.62;40.45
28588;BME280;15787;49.662;10.162;2023-06-14T10:03:00;98919.94;;;27.47;39.43
28588;BME280;15787;49.662;10.162;2023-06-14T10:05:34;98912.16;;;27.29;39.17
28588;BME280;15787;49.662;10.162;2023-06-14T10:08:10;98927.00;;;26.32;40.26
28588;BME280;15787;49.662;10.162;2023-06-14T10:10:45;98923.66;;;26.47;40.55
28588;BME280;15787;49.662;10.162;2023-06-14T10:13:21;98924.03;;;27.07;40.26
28588;BME280;15787;49.662;10.162;2023-06-14T10:15:58;98936.72;;;25.08;40.33
28588;BME280;15787;49.662;10.162;2023-06-14T10:18:40;98922.88;;;25.42;42.33
28588;BME280;15787;49.662;10.162;2023-06-14T10:21:21;98911.19;;;26.95;40.94
28588;BME280;15787;49.662;10.162;2023-06-14T10:24:04;98921.25;;;27.02;41.45
28588;BME280;15787;49.662;10.162;2023-06-14T10:26:52;98913.09;;;27.06;39.20
28588;BME280;15787;49.662;10.162;2023-06-14T10:29:26;98923.28;;;26.56;41.66
28588;BME280;15787;49.662;10.162;2023-06-14T10:32:07;98919.75;;;25.89;42.00
28588;BME280;15787;49.662;10.162;2023-06-14T10:34:41;98916.69;;;26.05;41.61
28588;BME280;15787;49.662;10.162;2023-06-14T10:37:17;98925.06;;;25.79;41.09
28588;BME280;15787;49.662;10.162;2023-06-14T10:39:51;98919.84;;;26.02;41.14
28588;BME280;15787;49.662;10.162;2023-06-14T10:42:32;98922.22;;;26.41;41.11
28588;BME280;15787;49.662;10.162;2023-06-14T10:45:06;98920.47;;;25.95;41.35
28588;BME280;15787;49.662;10.162;2023-06-14T10:47:39;98923.22;;;26.24;39.78
28588;BME280;15787;49.662;10.162;2023-06-14T10:50:12;98926.69;;;25.74;41.47
28588;BME280;15787;49.662;10.162;2023-06-14T10:52:46;98917.72;;;26.45;41.10
28588;BME280;15787;49.662;10.162;2023-06-14T10:55:19;98910.56;;;27.02;40.44
28588;BME280;15787;49.662;10.162;2023-06-14T10:57:56;98925.69;;;27.03;40.25
28588;BME280;15787;49.662;10.162;2023-06-14T11:00:33;98918.53;;;27.09;39.65
28588;BME280;15787;49.662;10.162;2023-06-14T11:07:34;98917.25;;;26.41;40.05
28588;BME280;15787;49.662;10.162;2023-06-14T11:10:44;98920.09;;;25.37;40.95
28588;BME280;15787;49.662;10.162;2023-06-14T11:13:19;98917.78;;;26.90;39.62
28588;BME280;15787;49.662;10.162;2023-06-14T11:15:52;98903.16;;;27.78;37.96
28588;BME280;15787;49.662;10.162;2023-06-14T11:18:28;98914.31;;;27.68;38.08
28588;BME280;15787;49.662;10.162;2023-06-14T11:21:01;98914.41;;;27.49;39.32
28588;BME280;15787;49.662;10.162;2023-06-14T11:23:34;98909.91;;;27.09;39.40
28588;BME280;15787;49.662;10.162;2023-06-14T11:26:07;98917.66;;;25.89;40.08
28588;BME280;15787;49.662;10.162;2023-06-14T11:28:42;98916.06;;;26.50;40.17
28588;BME280;15787;49.662;10.162;2023-06-14T11:31:15;98909.22;;;25.78;40.58
28588;BME280;15787;49.662;10.162;2023-06-14T11:33:49;98909.19;;;26.40;40.43
28588;BME280;15787;49.662;10.162;2023-06-14T11:36:23;98916.88;;;25.70;41.00
28588;BME280;15787;49.662;10.162;2023-06-14T11:38:59;98913.25;;;26.12;41.55
28588;BME280;15787;49.662;10.162;2023-06-14T11:41:34;98907.50;;;26.12;40.47
28588;BME280;15787;49.662;10.162;2023-06-14T11:44:09;98898.34;;;27.02;39.64
28588;BME280;15787;49.662;10.162;2023-06-14T11:46:43;98910.59;;;26.14;39.93
28588;BME280;15787;49.662;10.162;2023-06-14T11:49:17;98910.59;;;26.33;40.58
28588;BME280;15787;49.662;10.162;2023-06-14T11:51:50;98895.56;;;26.96;39.42
28588;BME280;15787;49.662;10.162;2023-06-14T11:54:23;98898.16;;;26.81;39.17
28588;BME280;15787;49.662;10.162;2023-06-14T11:56:56;98899.06;;;27.47;39.83
28588;BME280;15787;49.662;10.162;2023-06-14T11:59:31;98898.19;;;28.38;38.44
28588;BME280;15787;49.662;10.162;2023-06-14T12:02:07;98902.94;;;26.91;38.79
28588;BME280;15787;49.662;10.162;2023-06-14T12:04:52;98905.59;;;28.80;38.41
28588;BME280;15787;49.662;10.162;2023-06-14T12:07:30;98901.53;;;27.11;38.43
28588;BME280;15787;49.662;10.162;2023-06-14T12:10:04;98897.34;;;28.64;38.32
28588;BME280;15787;49.662;10.162;2023-06-14T12:12:39;98900.53;;;28.40;36.21
28588;BME280;15787;49.662;10.162;2023-06-14T12:15:15;98893.19;;;27.92;35.90
28588;BME280;15787;49.662;10.162;2023-06-14T12:17:49;98893.97;;;27.27;38.11
28588;BME280;15787;49.662;10.162;2023-06-14T12:20:29;98889.78;;;28.40;37.70
28588;BME280;15787;49.662;10.162;2023-06-14T12:23:03;98891.34;;;27.81;37.33
28588;BME280;15787;49.662;10.162;2023-06-14T12:25:37;98891.00;;;28.45;37.31
28588;BME280;15787;49.662;10.162;2023-06-14T12:28:11;98884.53;;;26.68;36.93
28588;BME280;15787;49.662;10.162;2023-06-14T12:30:46;98883.84;;;27.39;38.36
28588;BME280;15787;49.662;10.162;2023-06-14T12:33:26;98864.34;;;28.24;38.07
28588;BME280;15787;49.662;10.162;2023-06-14T12:35:59;98883.66;;;29.19;37.07
28588;BME280;15787;49.662;10.162;2023-06-14T12:38:32;98885.75;;;28.90;36.61
28588;BME280;15787;49.662;10.162;2023-06-14T12:41:05;98894.31;;;28.49;35.83
28588;BME280;15787;49.662;10.162;2023-06-14T12:43:39;98887.19;;;28.29;37.54
28588;BME280;15787;49.662;10.162;2023-06-14T12:46:14;98891.41;;;28.15;37.88
28588;BME280;15787;49.662;10.162;2023-06-14T12:48:47;98892.47;;;28.38;37.09
28588;BME280;15787;49.662;10.162;2023-06-14T12:51:20;98895.38;;;28.25;36.24
28588;BME280;15787;49.662;10.162;2023-06-14T12:54:01;98894.34;;;27.49;36.11
28588;BME280;15787;49.662;10.162;2023-06-14T12:56:35;98885.38;;;28.05;36.76
28588;BME280;15787;49.662;10.162;2023-06-14T12:59:08;98896.69;;;28.58;36.64
28588;BME280;15787;49.662;10.162;2023-06-14T13:01:43;98897.53;;;29.49;35.26
28588;BME280;15787;49.662;10.162;2023-06-14T13:04:16;98892.97;;;29.53;34.23
28588;BME280;15787;49.662;10.162;2023-06-14T13:06:49;98896.19;;;29.78;34.89
28588;BME280;15787;49.662;10.162;2023-06-14T13:09:22;98891.19;;;29.22;35.06
28588;BME280;15787;49.662;10.162;2023-06-14T13:11:55;98886.38;;;30.09;32.99
28588;BME280;15787;49.662;10.162;2023-06-14T13:14:28;98887.91;;;29.74;34.05
28588;BME280;15787;49.662;10.162;2023-06-14T13:17:08;98882.13;;;29.38;34.11
28588;BME280;15787;49.662;10.162;2023-06-14T13:19:47;98888.19;;;30.27;32.61
28588;BME280;15787;49.662;10.162;2023-06-14T13:22:21;98891.69;;;29.62;32.61
28588;BME280;15787;49.662;10.162;2023-06-14T13:24:54;98885.53;;;28.88;33.63
28588;BME280;15787;49.662;10.162;2023-06-14T13:27:27;98884.63;;;28.72;35.56
28588;BME280;15787;49.662;10.162;2023-06-14T13:30:00;98886.13;;;29.92;34.69
28588;BME280;15787;49.662;10.162;2023-06-14T13:32:35;98893.25;;;29.42;35.06
28588;BME280;15787;49.662;10.162;2023-06-14T13:35:08;98889.94;;;28.89;35.76
28588;BME280;15787;49.662;10.162;2023-06-14T13:37:41;98884.81;;;28.41;35.51